createdAt,value
2022-12-08T00:03:17.619Z,9.73
2022-12-08T00:08:39.238Z,10.77
2022-12-08T00:13:42.943Z,9.73
2022-12-08T00:18:45.564Z,10.32
2022-12-08T00:23:50.226Z,12.30
2022-12-08T00:28:55.974Z,11.05
2022-12-08T00:34:00.728Z,9.95
2022-12-08T00:39:03.251Z,11.18
2022-12-08T00:44:09.763Z,10.55
2022-12-08T00:49:11.950Z,9.32
2022-12-08T00:54:17.043Z,10.52
2022-12-08T00:59:24.028Z,10.27
2022-12-08T01:04:39.701Z,10.35
2022-12-08T01:09:41.633Z,10.07
2022-12-08T01:14:45.606Z,11.60
2022-12-08T01:19:50.811Z,10.20
2022-12-08T01:24:55.053Z,8.98
2022-12-08T01:30:00.186Z,8.77
2022-12-08T01:35:09.762Z,9.50
2022-12-08T01:40:15.113Z,9.80
2022-12-08T01:45:58.235Z,8.80
2022-12-08T01:51:05.382Z,8.43
2022-12-08T01:56:13.744Z,9.15
2022-12-08T02:05:25.033Z,9.63
2022-12-08T02:10:33.915Z,9.43
2022-12-08T02:16:24.678Z,10.25
2022-12-08T02:21:58.089Z,9.07
2022-12-08T02:27:26.628Z,11.07
2022-12-08T02:33:07.725Z,10.45
2022-12-08T02:38:54.223Z,10.65
2022-12-08T02:44:32.225Z,10.10
2022-12-08T02:49:40.136Z,8.85
2022-12-08T02:54:46.307Z,10.85
2022-12-08T03:00:36.268Z,9.20
2022-12-08T03:06:17.625Z,9.18
2022-12-08T03:11:31.207Z,8.15
2022-12-08T03:16:42.879Z,9.23
2022-12-08T03:21:53.006Z,10.90
2022-12-08T03:27:19.878Z,10.27
2022-12-08T03:32:47.938Z,9.55
2022-12-08T03:37:53.536Z,10.75
2022-12-08T03:43:04.512Z,10.75
2022-12-08T03:48:11.040Z,8.75
2022-12-08T03:53:13.936Z,8.93
2022-12-08T03:58:21.029Z,9.38
2022-12-08T04:03:23.524Z,9.52
2022-12-08T04:08:28.217Z,9.70
2022-12-08T04:13:33.647Z,9.57
2022-12-08T04:18:44.683Z,10.00
2022-12-08T04:23:49.282Z,9.98
2022-12-08T04:34:00.316Z,8.00
2022-12-08T04:39:06.845Z,8.32
2022-12-08T04:44:11.837Z,10.57
2022-12-08T04:49:13.664Z,10.10
2022-12-08T04:54:18.143Z,9.65
2022-12-08T04:59:21.921Z,9.48
2022-12-08T05:04:28.719Z,9.82
2022-12-08T05:13:41.602Z,8.52
2022-12-08T05:33:25.597Z,9.57
2022-12-08T05:38:27.516Z,10.13
2022-12-08T05:43:29.567Z,10.23
2022-12-08T05:48:31.574Z,10.70
2022-12-08T05:53:33.504Z,11.57
2022-12-08T05:58:35.370Z,9.75
2022-12-08T06:03:37.240Z,10.15
2022-12-08T06:08:39.207Z,11.45
2022-12-08T06:13:41.091Z,11.95
2022-12-08T06:18:45.845Z,11.95
2022-12-08T06:23:52.596Z,10.57
2022-12-08T06:28:54.611Z,10.65
2022-12-08T06:33:56.539Z,11.45
2022-12-08T06:38:59.986Z,10.02
2022-12-08T06:44:01.989Z,9.23
2022-12-08T06:49:03.945Z,9.52
2022-12-08T06:54:06.108Z,10.48
2022-12-08T06:59:07.962Z,11.57
2022-12-08T07:04:09.944Z,9.32
2022-12-08T07:09:12.038Z,9.40
2022-12-08T07:14:14.065Z,11.25
2022-12-08T07:19:18.562Z,11.27
2022-12-08T07:24:20.616Z,10.80
2022-12-08T07:29:26.215Z,11.50
2022-12-08T07:34:28.528Z,11.60
2022-12-08T07:39:30.933Z,11.32
2022-12-08T07:44:35.961Z,13.23
2022-12-08T07:49:41.558Z,14.70
2022-12-08T07:54:43.568Z,13.90
2022-12-08T07:59:45.530Z,12.75
2022-12-08T08:04:50.881Z,12.23
2022-12-08T08:09:54.742Z,10.68
2022-12-08T08:14:57.055Z,12.13
2022-12-08T08:19:59.515Z,11.85
2022-12-08T08:25:01.490Z,13.48
2022-12-08T08:30:04.821Z,10.88
2022-12-08T08:35:11.953Z,11.82
2022-12-08T08:40:14.123Z,12.02
2022-12-08T08:45:16.236Z,13.75
2022-12-08T08:50:18.329Z,12.50
2022-12-08T08:55:29.665Z,13.25
2022-12-08T09:00:35.231Z,14.82
2022-12-08T09:05:42.084Z,17.45
2022-12-08T09:10:44.560Z,18.20
2022-12-08T09:15:47.510Z,17.98
2022-12-08T09:20:49.534Z,19.35
2022-12-08T09:25:51.550Z,17.73
2022-12-08T09:30:53.634Z,19.50
2022-12-08T09:35:55.784Z,19.77
2022-12-08T09:46:01.812Z,17.70
2022-12-08T09:51:05.610Z,18.45
2022-12-08T09:56:21.972Z,17.25
2022-12-08T10:01:29.056Z,16.55
2022-12-08T10:06:41.668Z,16.98
2022-12-08T10:12:20.987Z,16.88
2022-12-08T10:17:34.588Z,18.55
2022-12-08T10:22:41.268Z,18.60
2022-12-08T10:27:51.538Z,20.27
2022-12-08T10:32:59.064Z,21.60
2022-12-08T10:43:05.980Z,18.80
2022-12-08T10:48:16.774Z,20.77
2022-12-08T10:53:30.452Z,19.23
2022-12-08T10:58:37.230Z,17.90
2022-12-08T11:03:45.426Z,20.08
2022-12-08T11:08:58.816Z,18.63
2022-12-08T11:14:08.090Z,17.25
2022-12-08T11:19:16.353Z,13.77
2022-12-08T11:24:29.257Z,15.98
2022-12-08T11:29:37.645Z,16.88
2022-12-08T11:34:52.151Z,13.80
2022-12-08T11:39:58.286Z,13.25
2022-12-08T11:45:07.804Z,11.63
2022-12-08T11:50:29.764Z,14.43
2022-12-08T11:55:48.136Z,12.77
2022-12-08T12:00:51.716Z,14.25
2022-12-08T12:06:53.009Z,15.43
2022-12-08T12:12:20.764Z,12.57
2022-12-08T12:17:51.141Z,13.55
2022-12-08T12:23:01.696Z,15.85
2022-12-08T12:28:08.049Z,13.63
2022-12-08T12:33:16.494Z,13.07
2022-12-08T12:38:54.593Z,16.25
2022-12-08T12:44:15.338Z,16.40
2022-12-08T12:49:43.990Z,17.77
2022-12-08T12:54:52.586Z,17.00
2022-12-08T13:00:05.046Z,17.83
2022-12-08T13:05:27.449Z,21.85
2022-12-08T13:10:33.959Z,18.10
2022-12-08T13:15:41.962Z,21.05
2022-12-08T13:20:50.605Z,17.30
2022-12-08T13:26:08.029Z,18.88
2022-12-08T13:31:48.551Z,21.38
2022-12-08T13:36:52.831Z,18.65
2022-12-08T13:42:02.747Z,20.23
2022-12-08T13:47:32.942Z,22.27
2022-12-08T13:57:59.575Z,20.67
2022-12-08T14:03:02.460Z,44.58
2022-12-08T14:08:30.056Z,35.80
2022-12-08T14:13:37.934Z,36.00
2022-12-08T14:18:40.150Z,26.35
2022-12-08T14:23:44.346Z,27.17
2022-12-08T14:28:49.780Z,26.15
2022-12-08T14:33:56.369Z,33.08
2022-12-08T14:38:59.153Z,28.25
2022-12-08T14:44:02.361Z,27.95
2022-12-08T14:49:04.488Z,35.33
2022-12-08T14:59:30.553Z,25.05
2022-12-08T15:04:32.901Z,35.90
2022-12-08T15:14:41.958Z,23.47
2022-12-08T15:19:58.566Z,24.00
2022-12-08T15:25:01.073Z,30.60
2022-12-08T15:30:03.597Z,29.17
2022-12-08T15:35:06.679Z,28.98
2022-12-08T15:40:17.993Z,23.25
2022-12-08T15:45:26.456Z,26.48
2022-12-08T15:50:28.491Z,21.90
2022-12-08T15:55:33.087Z,22.52
2022-12-08T16:00:52.401Z,21.13
2022-12-08T16:06:44.282Z,19.65
2022-12-08T16:12:05.305Z,21.58
2022-12-08T16:17:03.221Z,22.85
2022-12-08T16:28:05.234Z,22.10
2022-12-08T16:33:15.022Z,20.33
2022-12-08T16:43:19.386Z,16.83
2022-12-08T16:48:22.623Z,20.75
2022-12-08T16:53:24.837Z,23.70
2022-12-08T16:58:28.125Z,22.58
2022-12-08T17:03:35.958Z,21.40
2022-12-08T17:08:38.915Z,18.25
2022-12-08T17:13:41.975Z,18.90
2022-12-08T17:18:44.269Z,17.17
2022-12-08T17:29:04.033Z,19.38
2022-12-08T17:34:11.083Z,23.00
2022-12-08T17:39:18.481Z,22.23
2022-12-08T17:44:21.233Z,20.77
2022-12-08T17:49:25.738Z,26.65
2022-12-08T17:54:29.013Z,23.85
2022-12-08T17:59:31.412Z,24.50
2022-12-08T18:04:33.387Z,23.45
2022-12-08T18:09:35.396Z,18.80
2022-12-08T18:15:02.399Z,17.02
2022-12-08T18:20:05.766Z,20.55
2022-12-08T18:25:08.994Z,19.65
2022-12-08T18:30:17.852Z,23.23
2022-12-08T18:35:20.009Z,22.35
2022-12-08T18:40:22.581Z,18.83
2022-12-08T18:45:24.794Z,21.05
2022-12-08T18:55:31.386Z,17.57
2022-12-08T19:00:42.642Z,19.98
2022-12-08T19:05:44.741Z,19.27
2022-12-08T19:10:46.726Z,22.35
2022-12-08T19:15:48.819Z,20.63
2022-12-08T19:20:56.912Z,20.58
2022-12-08T19:25:59.246Z,38.03
2022-12-08T19:36:13.753Z,35.88
2022-12-08T19:41:34.863Z,37.08
2022-12-08T19:46:40.367Z,33.85
2022-12-08T19:51:42.965Z,37.53
2022-12-08T20:01:54.003Z,32.67
2022-12-08T20:06:59.334Z,31.92
2022-12-08T20:17:03.286Z,24.60
2022-12-08T20:22:09.080Z,60.38
2022-12-08T20:27:11.141Z,37.83
2022-12-08T20:32:13.287Z,27.55
2022-12-08T20:37:15.420Z,33.08
2022-12-08T20:42:25.140Z,35.13
2022-12-08T20:47:27.417Z,39.42
2022-12-08T20:57:31.515Z,36.63
2022-12-08T21:02:33.744Z,29.15
2022-12-08T21:07:36.000Z,31.27
2022-12-08T21:12:38.033Z,33.92
2022-12-08T21:17:40.104Z,36.10
2022-12-08T21:27:48.972Z,47.83
2022-12-08T21:32:51.118Z,39.25
2022-12-08T21:37:53.272Z,29.55
2022-12-08T21:42:55.423Z,32.72
2022-12-08T21:47:59.532Z,36.50
2022-12-08T21:53:03.481Z,38.83
2022-12-08T21:58:05.945Z,40.40
2022-12-08T22:03:13.075Z,36.30
2022-12-08T22:08:15.361Z,27.38
2022-12-08T22:13:17.486Z,29.42
2022-12-08T22:18:19.611Z,19.95
2022-12-08T22:23:21.711Z,19.58
2022-12-08T22:28:23.606Z,20.88
2022-12-08T22:33:25.638Z,18.20
2022-12-08T22:38:31.126Z,18.45
2022-12-08T22:43:34.636Z,18.13
2022-12-08T22:48:40.089Z,17.98
2022-12-08T22:53:42.397Z,16.90
2022-12-08T23:03:46.941Z,13.82
2022-12-08T23:08:49.429Z,15.82
2022-12-08T23:13:52.232Z,16.95
2022-12-08T23:18:54.542Z,17.38
2022-12-08T23:23:56.719Z,17.30
2022-12-08T23:28:59.566Z,18.15
2022-12-08T23:34:04.487Z,17.33
2022-12-08T23:39:06.847Z,17.85
2022-12-08T23:44:11.996Z,17.70
2022-12-08T23:49:14.743Z,19.20
2022-12-08T23:54:17.095Z,18.70
